createdAt,value
2018-04-06T00:00:25.436Z,6.78
2018-04-06T00:01:26.108Z,6.81
2018-04-06T00:02:26.773Z,6.72
2018-04-06T00:03:27.444Z,6.81
2018-04-06T00:04:28.124Z,6.74
2018-04-06T00:05:28.777Z,6.74
2018-04-06T00:06:29.457Z,6.72
2018-04-06T00:07:30.121Z,6.63
2018-04-06T00:08:30.787Z,6.60
2018-04-06T00:09:31.458Z,6.63
2018-04-06T00:10:32.121Z,6.64
2018-04-06T00:11:32.786Z,6.60
2018-04-06T00:12:33.451Z,6.74
2018-04-06T00:13:34.125Z,6.60
2018-04-06T00:14:34.790Z,6.57
2018-04-06T00:15:35.459Z,6.62
2018-04-06T00:16:36.127Z,6.59
2018-04-06T00:17:36.794Z,6.60
2018-04-06T00:18:37.459Z,6.42
2018-04-06T00:19:38.127Z,6.49
2018-04-06T00:20:38.792Z,6.54
2018-04-06T00:21:39.466Z,6.44
2018-04-06T00:22:40.133Z,6.42
2018-04-06T00:23:40.808Z,6.44
2018-04-06T00:24:41.477Z,6.35
2018-04-06T00:25:42.148Z,6.35
2018-04-06T00:26:42.815Z,6.35
2018-04-06T00:27:43.481Z,6.38
2018-04-06T00:28:44.153Z,6.38
2018-04-06T00:29:44.819Z,6.33
2018-04-06T00:30:45.483Z,6.33
2018-04-06T00:31:46.161Z,6.28
2018-04-06T00:32:46.827Z,6.28
2018-04-06T00:33:47.494Z,6.24
2018-04-06T00:34:48.167Z,6.30
2018-04-06T00:35:48.832Z,6.27
2018-04-06T00:36:49.496Z,6.19
2018-04-06T00:37:50.164Z,6.11
2018-04-06T00:38:50.833Z,6.19
2018-04-06T00:39:51.498Z,6.20
2018-04-06T00:40:52.169Z,6.14
2018-04-06T00:42:53.492Z,6.12
2018-04-06T00:43:54.163Z,6.08
2018-04-06T00:44:54.829Z,6.11
2018-04-06T00:45:55.496Z,6.12
2018-04-06T00:46:56.157Z,6.07
2018-04-06T00:47:56.825Z,5.99
2018-04-06T00:48:57.495Z,6.02
2018-04-06T00:49:58.165Z,6.08
2018-04-06T00:50:58.836Z,6.11
2018-04-06T00:51:59.498Z,6.05
2018-04-06T00:53:00.165Z,6.17
2018-04-06T00:54:00.832Z,6.11
2018-04-06T00:55:01.503Z,5.94
2018-04-06T00:56:02.175Z,6.02
2018-04-06T00:57:02.838Z,5.99
2018-04-06T00:58:03.503Z,5.87
2018-04-06T00:59:04.171Z,5.93
2018-04-06T01:00:04.854Z,5.91
2018-04-06T01:01:05.500Z,5.90
2018-04-06T01:02:06.167Z,5.87
2018-04-06T01:03:06.829Z,5.86
2018-04-06T01:04:07.492Z,5.86
2018-04-06T01:05:08.164Z,5.90
2018-04-06T01:06:08.826Z,5.89
2018-04-06T01:07:09.489Z,5.87
2018-04-06T01:08:10.158Z,5.86
2018-04-06T01:09:10.824Z,5.94
2018-04-06T01:10:11.496Z,5.84
2018-04-06T01:11:12.164Z,5.91
2018-04-06T01:12:12.825Z,5.93
2018-04-06T01:13:13.489Z,5.83
2018-04-06T01:14:14.159Z,5.83
2018-04-06T01:15:14.825Z,5.80
2018-04-06T01:16:15.490Z,5.76
2018-04-06T01:17:16.157Z,5.82
2018-04-06T01:18:16.823Z,5.75
2018-04-06T01:19:17.490Z,5.76
2018-04-06T01:20:18.155Z,5.75
2018-04-06T01:21:18.829Z,5.69
2018-04-06T01:22:19.504Z,5.65
2018-04-06T01:23:20.173Z,5.69
2018-04-06T01:24:20.840Z,5.66
2018-04-06T01:25:21.504Z,5.75
2018-04-06T01:26:22.167Z,5.68
2018-04-06T01:27:22.841Z,5.62
2018-04-06T01:28:23.504Z,5.66
2018-04-06T01:29:24.174Z,5.61
2018-04-06T01:30:24.844Z,5.54
2018-04-06T01:31:25.516Z,5.54
2018-04-06T01:32:26.181Z,5.56
2018-04-06T01:33:26.849Z,5.51
2018-04-06T01:34:27.513Z,5.57
2018-04-06T01:35:28.182Z,5.47
2018-04-06T01:36:28.851Z,5.35
2018-04-06T01:37:29.526Z,5.43
2018-04-06T01:38:30.197Z,5.36
2018-04-06T01:39:30.865Z,5.39
2018-04-06T01:40:31.530Z,5.32
2018-04-06T01:41:32.202Z,5.29
2018-04-06T01:42:32.870Z,5.38
2018-04-06T01:43:33.544Z,5.38
2018-04-06T01:44:34.208Z,5.32
2018-04-06T01:45:34.877Z,5.32
2018-04-06T01:46:35.546Z,5.21
2018-04-06T01:47:36.214Z,5.25
2018-04-06T01:48:36.886Z,5.20
2018-04-06T01:49:37.546Z,5.20
2018-04-06T01:50:38.254Z,5.20
2018-04-06T01:51:39.015Z,5.20
2018-04-06T01:52:39.683Z,5.14
2018-04-06T01:53:40.355Z,5.15
2018-04-06T01:54:41.023Z,5.10
2018-04-06T01:55:41.686Z,5.10
2018-04-06T01:56:42.349Z,4.94
2018-04-06T01:57:43.023Z,4.99
2018-04-06T01:58:43.694Z,4.99
2018-04-06T01:59:44.357Z,4.97
2018-04-06T02:00:45.024Z,4.97
2018-04-06T02:01:45.691Z,4.92
2018-04-06T02:02:46.357Z,4.93
2018-04-06T02:03:47.025Z,4.89
2018-04-06T02:04:47.691Z,4.90
2018-04-06T02:05:48.362Z,4.86
2018-04-06T02:06:49.023Z,4.87
2018-04-06T02:07:49.690Z,4.82
2018-04-06T02:08:50.360Z,4.84
2018-04-06T02:09:51.021Z,4.86
2018-04-06T02:10:51.690Z,4.86
2018-04-06T02:11:52.364Z,4.89
2018-04-06T02:12:53.032Z,4.84
2018-04-06T02:13:53.698Z,4.84
2018-04-06T02:14:54.365Z,4.74
2018-04-06T02:15:55.031Z,4.75
2018-04-06T02:16:55.699Z,4.77
2018-04-06T02:17:56.365Z,4.82
2018-04-06T02:18:57.038Z,4.74
2018-04-06T02:19:57.711Z,4.75
2018-04-06T02:20:58.382Z,4.74
2018-04-06T02:21:59.041Z,4.68
2018-04-06T02:22:59.710Z,4.62
2018-04-06T02:24:00.383Z,4.60
2018-04-06T02:25:01.047Z,4.60
2018-04-06T02:26:01.716Z,4.56
2018-04-06T02:27:02.388Z,4.55
2018-04-06T02:28:03.057Z,4.53
2018-04-06T02:29:03.725Z,4.55
2018-04-06T02:30:04.396Z,4.41
2018-04-06T02:31:05.059Z,4.48
2018-04-06T02:32:05.725Z,4.49
2018-04-06T02:33:06.387Z,4.38
2018-04-06T02:34:07.061Z,4.40
2018-04-06T02:35:07.726Z,4.38
2018-04-06T02:36:08.394Z,4.37
2018-04-06T02:37:09.053Z,4.37
2018-04-06T02:38:09.730Z,4.38
2018-04-06T02:39:10.389Z,4.32
2018-04-06T02:40:11.048Z,4.32
2018-04-06T02:41:11.711Z,4.28
2018-04-06T02:42:12.378Z,4.28
2018-04-06T02:43:13.045Z,4.34
2018-04-06T02:44:13.715Z,4.32
2018-04-06T02:45:14.388Z,4.19
2018-04-06T02:46:15.049Z,4.16
2018-04-06T02:47:15.713Z,4.20
2018-04-06T02:48:16.379Z,4.13
2018-04-06T02:49:17.046Z,4.19
2018-04-06T02:50:17.706Z,4.17
2018-04-06T02:51:18.379Z,4.06
2018-04-06T02:52:19.039Z,4.02
2018-04-06T02:53:19.702Z,4.06
2018-04-06T02:54:20.369Z,4.12
2018-04-06T02:55:21.032Z,4.04
2018-04-06T02:56:21.695Z,4.01
2018-04-06T02:57:22.360Z,3.99
2018-04-06T02:58:23.028Z,3.94
2018-04-06T02:59:23.695Z,3.88
2018-04-06T03:00:24.367Z,3.96
2018-04-06T03:01:25.036Z,3.86
2018-04-06T03:02:25.699Z,3.86
2018-04-06T03:03:26.365Z,3.84
2018-04-06T03:04:27.035Z,3.83
2018-04-06T03:05:27.694Z,3.80
2018-04-06T03:06:28.358Z,3.74
2018-04-06T03:07:29.026Z,3.77
2018-04-06T03:08:29.691Z,3.77
2018-04-06T03:09:30.358Z,3.74
2018-04-06T03:10:31.026Z,3.83
2018-04-06T03:11:31.691Z,3.78
2018-04-06T03:12:32.354Z,3.62
2018-04-06T03:13:33.016Z,3.65
2018-04-06T03:14:33.682Z,3.58
2018-04-06T03:15:34.346Z,3.70
2018-04-06T03:16:35.012Z,3.63
2018-04-06T03:17:35.676Z,3.76
2018-04-06T03:18:36.338Z,3.66
2018-04-06T03:19:37.011Z,3.68
2018-04-06T03:20:37.677Z,3.56
2018-04-06T03:21:38.343Z,3.56
2018-04-06T03:22:39.005Z,3.48
2018-04-06T03:23:39.668Z,3.47
2018-04-06T03:24:40.329Z,3.45
2018-04-06T03:25:40.992Z,3.50
2018-04-06T03:26:41.657Z,3.41
2018-04-06T03:27:42.323Z,3.47
2018-04-06T03:28:42.985Z,3.31
2018-04-06T03:29:43.653Z,3.31
2018-04-06T03:30:44.320Z,3.32
2018-04-06T03:31:44.984Z,3.16
2018-04-06T03:32:45.647Z,3.25
2018-04-06T03:33:46.349Z,3.21
2018-04-06T03:34:47.019Z,3.31
2018-04-06T03:35:47.682Z,3.18
2018-04-06T03:36:48.345Z,3.18
2018-04-06T03:37:49.013Z,3.21
2018-04-06T03:38:49.703Z,3.16
2018-04-06T03:39:50.347Z,3.03
2018-04-06T03:40:51.019Z,3.04
2018-04-06T03:41:51.684Z,3.04
2018-04-06T03:42:52.359Z,3.04
2018-04-06T03:43:53.025Z,3.03
2018-04-06T03:44:53.688Z,3.04
2018-04-06T03:45:54.350Z,3.03
2018-04-06T03:46:55.016Z,2.97
2018-04-06T03:47:55.690Z,3.01
2018-04-06T03:48:56.357Z,2.90
2018-04-06T03:49:57.025Z,2.87
2018-04-06T03:50:57.689Z,3.03
2018-04-06T03:51:58.351Z,2.98
2018-04-06T03:52:59.013Z,2.93
2018-04-06T03:53:59.677Z,2.89
2018-04-06T03:55:00.342Z,2.87
2018-04-06T03:56:01.001Z,2.85
2018-04-06T03:57:01.669Z,2.86
2018-04-06T03:58:02.331Z,2.90
2018-04-06T03:59:02.998Z,2.89
2018-04-06T04:00:03.660Z,2.85
2018-04-06T04:01:04.322Z,2.85
2018-04-06T04:02:04.994Z,2.82
2018-04-06T04:03:05.656Z,2.82
2018-04-06T04:04:06.317Z,2.80
2018-04-06T04:05:06.996Z,2.79
2018-04-06T04:06:07.650Z,2.79
2018-04-06T04:07:08.320Z,2.75
2018-04-06T04:08:08.991Z,2.79
2018-04-06T04:09:09.653Z,2.71
2018-04-06T04:10:10.315Z,2.68
2018-04-06T04:11:10.978Z,2.75
2018-04-06T04:12:11.643Z,2.74
2018-04-06T04:13:12.305Z,2.67
2018-04-06T04:14:12.974Z,2.68
2018-04-06T04:15:13.636Z,2.69
2018-04-06T04:16:14.301Z,2.64
2018-04-06T04:17:14.964Z,2.72
2018-04-06T04:18:15.630Z,2.71
2018-04-06T04:19:16.294Z,2.74
2018-04-06T04:20:16.962Z,2.71
2018-04-06T04:21:17.621Z,2.64
2018-04-06T04:22:18.281Z,2.61
2018-04-06T04:23:18.946Z,2.64
2018-04-06T04:24:19.612Z,2.65
2018-04-06T04:25:20.275Z,2.60
2018-04-06T04:26:20.940Z,2.65
2018-04-06T04:27:21.606Z,2.65
2018-04-06T04:28:22.270Z,2.56
2018-04-06T04:29:22.937Z,2.64
2018-04-06T04:30:23.599Z,2.68
2018-04-06T04:31:24.266Z,2.69
2018-04-06T04:32:24.925Z,2.65
2018-04-06T04:33:25.590Z,2.68
2018-04-06T04:34:26.281Z,2.62
2018-04-06T04:35:26.919Z,2.62
2018-04-06T04:36:27.586Z,2.54
2018-04-06T04:37:28.249Z,2.61
2018-04-06T04:38:28.918Z,2.61
2018-04-06T04:39:29.587Z,2.64
2018-04-06T04:40:30.247Z,2.68
2018-04-06T04:41:30.914Z,2.61
2018-04-06T04:42:31.574Z,2.64
2018-04-06T04:43:32.237Z,2.60
2018-04-06T04:44:32.900Z,2.61
2018-04-06T04:45:33.565Z,2.53
2018-04-06T04:46:34.235Z,2.51
2018-04-06T04:47:34.898Z,2.47
2018-04-06T04:48:35.561Z,2.56
2018-04-06T04:49:36.225Z,2.57
2018-04-06T04:50:36.887Z,2.54
2018-04-06T04:51:37.556Z,2.56
2018-04-06T04:52:38.223Z,2.53
2018-04-06T04:53:38.890Z,2.49
2018-04-06T04:54:39.556Z,2.43
2018-04-06T04:55:40.228Z,2.53
2018-04-06T04:56:40.891Z,2.44
2018-04-06T04:57:41.556Z,2.53
2018-04-06T04:58:42.222Z,2.46
2018-04-06T04:59:42.891Z,2.53
2018-04-06T05:00:43.559Z,2.50
2018-04-06T05:01:44.235Z,2.46
2018-04-06T05:02:44.904Z,2.44
2018-04-06T05:03:45.576Z,2.44
2018-04-06T05:04:46.240Z,2.42
2018-04-06T05:05:46.908Z,2.39
2018-04-06T05:06:47.573Z,2.39
2018-04-06T05:07:48.235Z,2.43
2018-04-06T05:08:48.910Z,2.43
2018-04-06T05:09:49.580Z,2.42
2018-04-06T05:10:50.246Z,2.36
2018-04-06T05:11:50.915Z,2.43
2018-04-06T05:12:51.580Z,2.35
2018-04-06T05:13:52.249Z,2.44
2018-04-06T05:14:52.915Z,2.42
2018-04-06T05:15:53.593Z,2.35
2018-04-06T05:16:54.259Z,2.38
2018-04-06T05:17:54.924Z,2.39
2018-04-06T05:18:55.588Z,2.32
2018-04-06T05:19:56.257Z,2.38
2018-04-06T05:20:56.923Z,2.47
2018-04-06T05:21:57.592Z,2.38
2018-04-06T05:22:58.260Z,2.39
2018-04-06T05:23:58.925Z,2.36
2018-04-06T05:24:59.591Z,2.38
2018-04-06T05:26:00.258Z,2.35
2018-04-06T05:27:00.927Z,2.36
2018-04-06T05:28:01.597Z,2.38
2018-04-06T05:29:02.265Z,2.46
2018-04-06T05:30:02.931Z,2.44
2018-04-06T05:31:03.602Z,2.39
2018-04-06T05:32:04.266Z,2.44
2018-04-06T05:33:04.934Z,2.38
2018-04-06T05:34:05.600Z,2.54
2018-04-06T05:35:06.270Z,2.42
2018-04-06T05:36:06.942Z,2.53
2018-04-06T05:37:07.628Z,2.57
2018-04-06T05:38:08.295Z,2.44
2018-04-06T05:39:08.960Z,2.54
2018-04-06T05:40:09.626Z,2.54
2018-04-06T05:41:10.293Z,2.57
2018-04-06T05:42:10.961Z,2.53
2018-04-06T05:43:11.629Z,2.57
2018-04-06T05:44:12.295Z,2.54
2018-04-06T05:45:12.973Z,2.47
2018-04-06T05:46:13.639Z,2.51
2018-04-06T05:47:14.314Z,2.56
2018-04-06T05:48:14.984Z,2.61
2018-04-06T05:49:15.651Z,2.68
2018-04-06T05:50:16.319Z,2.72
2018-04-06T05:51:16.992Z,2.71
2018-04-06T05:52:17.661Z,2.69
2018-04-06T05:53:18.328Z,2.67
2018-04-06T05:54:18.996Z,2.65
2018-04-06T05:55:19.663Z,2.71
2018-04-06T05:56:20.329Z,2.69
2018-04-06T05:57:20.995Z,2.77
2018-04-06T05:58:21.693Z,2.77
2018-04-06T05:59:22.406Z,2.85
2018-04-06T06:00:23.086Z,2.79
2018-04-06T06:01:23.753Z,2.83
2018-04-06T06:02:24.434Z,2.89
2018-04-06T06:03:25.102Z,2.92
2018-04-06T06:04:25.766Z,2.83
2018-04-06T06:05:26.445Z,2.90
2018-04-06T06:06:27.107Z,2.90
2018-04-06T06:07:27.777Z,2.89
2018-04-06T06:08:28.446Z,2.89
2018-04-06T06:09:29.113Z,2.95
2018-04-06T06:10:29.780Z,2.98
2018-04-06T06:11:30.448Z,3.00
2018-04-06T06:12:31.115Z,3.01
2018-04-06T06:13:31.784Z,3.07
2018-04-06T06:14:32.460Z,3.01
2018-04-06T06:15:33.151Z,3.10
2018-04-06T06:16:33.794Z,3.08
2018-04-06T06:17:34.462Z,3.01
2018-04-06T06:18:35.130Z,3.11
2018-04-06T06:19:35.799Z,3.10
2018-04-06T06:20:36.467Z,3.19
2018-04-06T06:21:37.131Z,3.18
2018-04-06T06:22:37.797Z,3.21
2018-04-06T06:23:38.466Z,3.25
2018-04-06T06:24:39.133Z,3.44
2018-04-06T06:25:39.807Z,3.28
2018-04-06T06:26:40.477Z,3.32
2018-04-06T06:27:41.153Z,3.45
2018-04-06T06:28:41.841Z,3.42
2018-04-06T06:29:42.501Z,3.51
2018-04-06T06:30:43.174Z,3.51
2018-04-06T06:31:43.847Z,3.56
2018-04-06T06:32:44.520Z,3.51
2018-04-06T06:33:45.192Z,3.56
2018-04-06T06:34:45.863Z,3.68
2018-04-06T06:35:46.534Z,3.58
2018-04-06T06:36:47.240Z,3.70
2018-04-06T06:37:47.880Z,3.81
2018-04-06T06:38:48.557Z,3.74
2018-04-06T06:39:49.225Z,3.88
2018-04-06T06:40:49.904Z,3.88
2018-04-06T06:41:50.578Z,3.95
2018-04-06T06:42:51.289Z,4.05
2018-04-06T06:43:51.915Z,4.10
2018-04-06T06:44:52.583Z,4.10
2018-04-06T06:45:53.253Z,4.10
2018-04-06T06:46:53.924Z,4.32
2018-04-06T06:47:54.593Z,4.41
2018-04-06T06:48:55.258Z,4.49
2018-04-06T06:49:55.931Z,4.62
2018-04-06T06:50:56.600Z,4.70
2018-04-06T06:51:57.269Z,4.93
2018-04-06T06:52:57.936Z,5.04
2018-04-06T06:53:58.602Z,5.15
2018-04-06T06:54:59.283Z,5.20
2018-04-06T06:55:59.954Z,5.26
2018-04-06T06:57:00.621Z,5.43
2018-04-06T06:58:01.228Z,5.47
2018-04-06T06:59:01.973Z,5.57
2018-04-06T07:00:02.640Z,5.56
2018-04-06T07:01:03.308Z,5.62
2018-04-06T07:02:03.979Z,5.66
2018-04-06T07:03:04.648Z,5.73
2018-04-06T07:04:05.328Z,5.61
2018-04-06T07:05:05.996Z,5.75
2018-04-06T07:06:06.665Z,5.79
2018-04-06T07:07:07.335Z,5.89
2018-04-06T07:08:08.006Z,5.87
2018-04-06T07:09:08.677Z,5.97
2018-04-06T07:10:09.350Z,6.07
2018-04-06T07:11:10.025Z,6.12
2018-04-06T07:12:10.694Z,6.09
2018-04-06T07:13:11.374Z,6.09
2018-04-06T07:14:12.041Z,6.09
2018-04-06T07:15:12.720Z,6.24
2018-04-06T07:16:13.390Z,6.35
2018-04-06T07:17:14.064Z,6.36
2018-04-06T07:18:14.745Z,6.38
2018-04-06T07:19:15.416Z,6.46
2018-04-06T07:20:16.089Z,6.48
2018-04-06T07:21:16.764Z,6.56
2018-04-06T07:22:17.433Z,6.63
2018-04-06T07:23:18.108Z,6.59
2018-04-06T07:24:18.777Z,6.56
2018-04-06T07:25:19.449Z,6.57
2018-04-06T07:26:20.125Z,6.63
2018-04-06T07:27:20.795Z,6.77
2018-04-06T07:28:21.469Z,6.77
2018-04-06T07:29:22.148Z,6.88
2018-04-06T07:30:22.820Z,6.82
2018-04-06T07:31:23.492Z,6.89
2018-04-06T07:32:24.180Z,6.88
2018-04-06T07:33:24.830Z,7.02
2018-04-06T07:34:25.503Z,7.07
2018-04-06T07:35:26.175Z,7.11
2018-04-06T07:36:26.854Z,7.20
2018-04-06T07:37:27.524Z,7.23
2018-04-06T07:38:28.203Z,7.29
2018-04-06T07:39:28.877Z,7.25
2018-04-06T07:40:29.547Z,7.23
2018-04-06T07:41:30.223Z,7.35
2018-04-06T07:42:30.892Z,7.25
2018-04-06T07:43:31.559Z,7.35
2018-04-06T07:44:32.229Z,7.29
2018-04-06T07:45:32.904Z,7.45
2018-04-06T07:46:33.572Z,7.36
2018-04-06T07:47:34.241Z,7.53
2018-04-06T07:48:34.913Z,7.57
2018-04-06T07:49:35.616Z,7.54
2018-04-06T07:50:36.256Z,7.63
2018-04-06T07:51:36.926Z,7.63
2018-04-06T07:52:37.602Z,7.67
2018-04-06T07:53:38.288Z,7.66
2018-04-06T07:54:38.965Z,7.54
2018-04-06T07:55:39.632Z,7.63
2018-04-06T07:56:40.303Z,7.75
2018-04-06T07:57:40.982Z,7.63
2018-04-06T07:58:41.645Z,7.63
2018-04-06T07:59:42.313Z,7.80
2018-04-06T08:00:42.990Z,7.69
2018-04-06T08:01:43.661Z,7.72
2018-04-06T08:02:44.335Z,7.73
2018-04-06T08:03:45.010Z,7.83
2018-04-06T08:04:45.674Z,7.75
2018-04-06T08:05:46.347Z,7.88
2018-04-06T08:06:47.017Z,7.98
2018-04-06T08:07:47.690Z,7.88
2018-04-06T08:08:48.359Z,7.94
2018-04-06T08:09:49.047Z,7.80
2018-04-06T08:10:49.704Z,7.80
2018-04-06T08:11:50.378Z,7.91
2018-04-06T08:12:51.050Z,7.91
2018-04-06T08:13:51.723Z,7.80
2018-04-06T08:14:52.392Z,8.00
2018-04-06T08:15:53.065Z,8.03
2018-04-06T08:16:53.737Z,7.97
2018-04-06T08:17:54.407Z,8.08
2018-04-06T08:18:55.089Z,8.01
2018-04-06T08:19:55.763Z,8.08
2018-04-06T08:20:56.430Z,8.10
2018-04-06T08:21:57.116Z,8.08
2018-04-06T08:22:57.793Z,8.16
2018-04-06T08:23:58.470Z,8.12
2018-04-06T08:24:59.142Z,8.26
2018-04-06T08:25:59.814Z,8.36
2018-04-06T08:27:00.492Z,8.27
2018-04-06T08:28:01.173Z,8.26
2018-04-06T08:29:01.840Z,8.34
2018-04-06T08:30:02.521Z,8.41
2018-04-06T08:31:03.195Z,8.38
2018-04-06T08:32:03.866Z,8.34
2018-04-06T08:33:04.540Z,8.45
2018-04-06T08:34:05.213Z,8.53
2018-04-06T08:35:05.885Z,8.48
2018-04-06T08:36:06.564Z,8.58
2018-04-06T08:37:07.235Z,8.55
2018-04-06T08:38:07.912Z,8.55
2018-04-06T08:39:08.590Z,8.56
2018-04-06T08:40:09.253Z,8.71
2018-04-06T08:41:09.926Z,8.78
2018-04-06T08:42:10.610Z,8.91
2018-04-06T08:43:11.282Z,8.87
2018-04-06T08:44:11.950Z,8.87
2018-04-06T08:45:12.624Z,8.88
2018-04-06T08:46:13.300Z,8.95
2018-04-06T08:47:13.976Z,9.02
2018-04-06T08:48:14.648Z,9.02
2018-04-06T08:49:15.318Z,8.97
2018-04-06T08:50:15.990Z,8.95
2018-04-06T08:51:16.662Z,9.04
2018-04-06T08:52:17.333Z,9.04
2018-04-06T08:53:18.006Z,8.94
2018-04-06T08:54:18.665Z,8.97
2018-04-06T08:55:19.350Z,9.08
2018-04-06T08:56:20.020Z,9.06
2018-04-06T08:57:20.693Z,9.10
2018-04-06T08:58:21.366Z,9.08
2018-04-06T08:59:22.036Z,9.11
2018-04-06T09:00:22.707Z,9.18
2018-04-06T09:01:23.387Z,9.19
2018-04-06T09:02:24.067Z,9.36
2018-04-06T09:03:24.745Z,9.36
2018-04-06T09:04:25.442Z,9.37
2018-04-06T09:05:26.102Z,9.46
2018-04-06T09:06:26.775Z,9.48
2018-04-06T09:07:27.453Z,9.58
2018-04-06T09:08:28.127Z,9.65
2018-04-06T09:09:28.795Z,9.59
2018-04-06T09:10:29.481Z,9.64
2018-04-06T09:11:30.153Z,9.61
2018-04-06T09:12:30.828Z,9.73
2018-04-06T09:13:31.501Z,9.82
2018-04-06T09:14:32.175Z,9.99
2018-04-06T09:15:32.847Z,9.94
2018-04-06T09:16:33.519Z,10.04
2018-04-06T09:17:34.211Z,10.10
2018-04-06T09:18:34.887Z,10.22
2018-04-06T09:19:35.560Z,10.17
2018-04-06T09:20:36.230Z,10.31
2018-04-06T09:21:36.911Z,10.40
2018-04-06T09:22:37.585Z,10.38
2018-04-06T09:23:38.257Z,10.63
2018-04-06T09:24:38.938Z,10.54
2018-04-06T09:25:39.612Z,10.68
2018-04-06T09:26:40.289Z,10.72
2018-04-06T09:27:40.966Z,10.74
2018-04-06T09:28:41.638Z,10.79
2018-04-06T09:29:42.323Z,10.81
2018-04-06T09:30:42.996Z,10.93
2018-04-06T09:31:43.680Z,10.96
2018-04-06T09:32:44.355Z,10.82
2018-04-06T09:33:45.033Z,10.82
2018-04-06T09:34:45.710Z,10.86
2018-04-06T09:35:46.387Z,10.78
2018-04-06T09:36:47.062Z,10.71
2018-04-06T09:37:47.742Z,10.78
2018-04-06T09:38:48.419Z,10.75
2018-04-06T09:39:49.105Z,10.72
2018-04-06T09:40:49.779Z,10.75
2018-04-06T09:41:50.456Z,10.81
2018-04-06T09:42:51.132Z,10.63
2018-04-06T09:43:51.806Z,10.74
2018-04-06T09:44:52.481Z,10.92
2018-04-06T09:45:53.161Z,11.07
2018-04-06T09:46:53.832Z,11.18
2018-04-06T09:47:54.505Z,11.19
2018-04-06T09:48:55.184Z,11.12
2018-04-06T09:49:55.858Z,11.18
2018-04-06T09:50:56.534Z,11.33
2018-04-06T09:51:57.207Z,11.41
2018-04-06T09:52:57.884Z,11.44
2018-04-06T09:53:58.558Z,11.57
2018-04-06T09:54:59.246Z,11.52
2018-04-06T09:55:59.929Z,11.68
2018-04-06T09:57:00.608Z,11.69
2018-04-06T09:58:01.281Z,11.62
2018-04-06T09:59:01.960Z,11.69
2018-04-06T10:00:02.632Z,11.83
2018-04-06T10:01:03.309Z,11.78
2018-04-06T10:02:04.002Z,11.87
2018-04-06T10:03:04.679Z,11.66
2018-04-06T10:04:05.349Z,11.73
2018-04-06T10:05:06.032Z,11.62
2018-04-06T10:06:06.709Z,11.41
2018-04-06T10:07:07.381Z,11.23
2018-04-06T10:08:08.058Z,11.27
2018-04-06T10:09:08.732Z,11.25
2018-04-06T10:10:09.424Z,11.51
2018-04-06T10:11:10.104Z,11.63
2018-04-06T10:12:10.779Z,11.86
2018-04-06T10:13:11.460Z,11.99
2018-04-06T10:14:12.135Z,12.07
2018-04-06T10:15:12.813Z,12.17
2018-04-06T10:16:13.519Z,11.97
2018-04-06T10:17:14.166Z,11.97
2018-04-06T10:18:14.842Z,11.94
2018-04-06T10:19:15.516Z,12.15
2018-04-06T10:20:16.190Z,12.27
2018-04-06T10:21:16.866Z,12.02
2018-04-06T10:22:17.540Z,12.00
2018-04-06T10:23:18.218Z,11.90
2018-04-06T10:24:18.898Z,12.17
2018-04-06T10:25:19.574Z,12.15
2018-04-06T10:26:20.243Z,12.35
2018-04-06T10:27:20.919Z,12.43
2018-04-06T10:28:21.599Z,12.54
2018-04-06T10:29:22.279Z,12.55
2018-04-06T10:30:22.958Z,12.64
2018-04-06T10:31:23.646Z,12.67
2018-04-06T10:32:24.319Z,12.86
2018-04-06T10:33:24.995Z,12.80
2018-04-06T10:34:25.673Z,12.67
2018-04-06T10:35:26.363Z,12.45
2018-04-06T10:36:27.044Z,12.65
2018-04-06T10:37:27.740Z,12.64
2018-04-06T10:38:28.530Z,12.70
2018-04-06T10:39:29.208Z,12.75
2018-04-06T10:40:29.898Z,12.58
2018-04-06T10:41:30.564Z,12.90
2018-04-06T10:42:31.234Z,12.76
2018-04-06T10:43:31.915Z,12.95
2018-04-06T10:44:32.590Z,12.95
2018-04-06T10:45:33.275Z,12.90
2018-04-06T10:46:33.951Z,12.95
2018-04-06T10:47:34.634Z,12.97
2018-04-06T10:48:35.310Z,12.94
2018-04-06T10:49:35.990Z,13.12
2018-04-06T10:50:36.659Z,13.19
2018-04-06T10:51:37.333Z,13.23
2018-04-06T10:52:38.011Z,13.04
2018-04-06T10:53:38.684Z,12.94
2018-04-06T10:54:39.367Z,12.95
2018-04-06T10:55:40.041Z,12.80
2018-04-06T10:56:40.715Z,12.87
2018-04-06T10:57:41.391Z,13.09
2018-04-06T10:58:42.066Z,13.16
2018-04-06T10:59:42.750Z,13.23
2018-04-06T11:00:43.419Z,13.03
2018-04-06T11:01:44.093Z,13.04
2018-04-06T11:02:44.770Z,12.98
2018-04-06T11:03:45.448Z,13.15
2018-04-06T11:04:46.133Z,13.38
2018-04-06T11:05:46.802Z,13.30
2018-04-06T11:06:47.479Z,13.04
2018-04-06T11:07:48.153Z,13.23
2018-04-06T11:08:48.833Z,13.15
2018-04-06T11:09:49.508Z,13.13
2018-04-06T11:10:50.185Z,13.33
2018-04-06T11:11:50.773Z,13.19
2018-04-06T11:12:51.521Z,13.35
2018-04-06T11:13:52.197Z,13.39
2018-04-06T11:14:52.874Z,13.44
2018-04-06T11:15:53.558Z,13.30
2018-04-06T11:16:54.231Z,13.08
2018-04-06T11:17:54.918Z,12.90
2018-04-06T11:18:55.592Z,13.13
2018-04-06T11:19:56.278Z,13.31
2018-04-06T11:20:56.949Z,13.38
2018-04-06T11:21:57.627Z,13.46
2018-04-06T11:22:58.340Z,13.54
2018-04-06T11:23:58.988Z,13.56
2018-04-06T11:24:59.658Z,13.75
2018-04-06T11:26:00.335Z,13.87
2018-04-06T11:27:01.030Z,13.70
2018-04-06T11:28:01.694Z,13.70
2018-04-06T11:29:02.380Z,13.72
2018-04-06T11:30:03.062Z,13.77
2018-04-06T11:31:03.739Z,13.93
2018-04-06T11:32:04.469Z,13.99
2018-04-06T11:33:05.091Z,14.11
2018-04-06T11:34:05.770Z,14.15
2018-04-06T11:35:06.458Z,14.86
2018-04-06T11:36:07.153Z,15.92
2018-04-06T11:37:07.832Z,17.48
2018-04-06T11:38:08.510Z,19.11
2018-04-06T11:39:09.189Z,20.28
2018-04-06T11:40:09.866Z,21.55
2018-04-06T11:41:10.545Z,21.32
2018-04-06T11:42:11.223Z,21.32
2018-04-06T11:43:11.908Z,22.65
2018-04-06T11:44:12.614Z,23.71
2018-04-06T11:45:13.276Z,23.77
2018-04-06T11:46:13.952Z,24.23
2018-04-06T11:47:14.633Z,23.86
2018-04-06T11:48:15.253Z,23.95
2018-04-06T11:49:16.002Z,26.21
2018-04-06T11:50:16.685Z,24.08
2018-04-06T11:51:17.374Z,25.23
2018-04-06T11:52:18.061Z,24.92
2018-04-06T11:53:18.739Z,24.45
2018-04-06T11:54:19.421Z,24.69
2018-04-06T11:55:20.112Z,24.48
2018-04-06T11:56:20.794Z,25.25
2018-04-06T11:57:21.477Z,26.60
2018-04-06T11:58:22.162Z,25.62
2018-04-06T11:59:22.844Z,24.45
2018-04-06T12:00:23.531Z,25.95
2018-04-06T12:01:24.214Z,26.02
2018-04-06T12:02:24.899Z,27.29
2018-04-06T12:03:25.595Z,27.27
2018-04-06T12:04:26.280Z,25.03
2018-04-06T12:05:26.983Z,26.56
2018-04-06T12:06:27.671Z,26.03
2018-04-06T12:07:28.363Z,27.67
2018-04-06T12:08:29.051Z,26.75
2018-04-06T12:09:29.812Z,25.83
2018-04-06T12:10:30.502Z,25.55
2018-04-06T12:11:31.197Z,27.82
2018-04-06T12:12:31.890Z,27.30
2018-04-06T12:13:32.579Z,29.08
2018-04-06T12:14:33.271Z,27.83
2018-04-06T12:15:33.966Z,28.35
2018-04-06T12:16:34.656Z,27.44
2018-04-06T12:17:35.342Z,29.36
2018-04-06T12:18:36.028Z,30.32
2018-04-06T12:19:36.715Z,30.54
2018-04-06T12:20:37.406Z,29.93
2018-04-06T12:21:38.093Z,30.16
2018-04-06T12:22:38.785Z,30.77
2018-04-06T12:23:39.473Z,29.65
2018-04-06T12:24:40.160Z,31.39
2018-04-06T12:25:40.847Z,28.60
2018-04-06T12:26:41.532Z,27.08
2018-04-06T12:27:42.224Z,27.45
2018-04-06T12:28:42.923Z,26.71
2018-04-06T12:29:43.629Z,28.04
2018-04-06T12:30:44.327Z,29.78
2018-04-06T12:31:45.031Z,29.69
2018-04-06T12:32:45.721Z,29.98
2018-04-06T12:33:46.418Z,28.17
2018-04-06T12:34:47.117Z,30.18
2018-04-06T12:35:47.812Z,29.20
2018-04-06T12:36:48.502Z,31.62
2018-04-06T12:37:49.204Z,33.76
2018-04-06T12:38:49.892Z,33.24
2018-04-06T12:39:50.588Z,35.02
2018-04-06T12:40:51.281Z,33.15
2018-04-06T12:41:51.972Z,32.19
2018-04-06T12:42:52.665Z,33.58
2018-04-06T12:43:53.365Z,35.33
2018-04-06T12:44:54.059Z,35.45
2018-04-06T12:45:54.772Z,32.64
2018-04-06T12:46:55.452Z,34.42
2018-04-06T12:47:56.139Z,34.95
2018-04-06T12:48:56.842Z,37.90
2018-04-06T12:49:57.528Z,36.28
2018-04-06T12:50:58.219Z,36.57
2018-04-06T12:51:58.913Z,39.89
2018-04-06T12:52:59.606Z,36.95
2018-04-06T12:54:00.295Z,36.93
2018-04-06T12:55:00.987Z,40.40
2018-04-06T12:56:01.680Z,41.88
2018-04-06T12:57:02.375Z,35.45
2018-04-06T12:58:03.062Z,35.04
2018-04-06T12:59:03.757Z,37.20
2018-04-06T13:00:04.456Z,36.93
2018-04-06T13:01:05.145Z,35.85
2018-04-06T13:02:05.835Z,39.18
2018-04-06T13:03:06.526Z,38.45
2018-04-06T13:04:07.215Z,37.08
2018-04-06T13:05:07.904Z,36.57
2018-04-06T13:06:08.604Z,36.46
2018-04-06T13:07:09.307Z,38.15
2018-04-06T13:08:09.991Z,39.67
2018-04-06T13:09:10.684Z,38.05
2018-04-06T13:10:11.375Z,36.80
2018-04-06T13:11:12.066Z,38.36
2018-04-06T13:12:12.762Z,39.56
2018-04-06T13:13:13.457Z,37.36
2018-04-06T13:14:14.152Z,37.93
2018-04-06T13:15:14.855Z,38.28
2018-04-06T13:16:15.558Z,36.86
2018-04-06T13:17:16.254Z,38.04
2018-04-06T13:18:16.945Z,39.97
2018-04-06T13:19:17.637Z,37.59
2018-04-06T13:20:18.325Z,36.12